Time;durP1;ratioP1;P1;durP2;ratioP2;P2;SDS_P1;SDS_P2;PMS_P1;PMS_P2;Temp;Humidity;BMP_temperature;BMP_pressure;BME280_temperature;BME280_humidity;BME280_pressure;Samples;Min_cycle;Max_cycle;Signal;HPM_P1;HPM_P2
2023/04/12 00:02:28;;;;;;;7.47;1.40;;;;;;;;;;4992681;28;20034;-81
2023/04/12 00:04:56;;;;;;;5.78;1.35;;;;;;;;;;5012898;28;20029;-80
2023/04/12 00:07:37;;;;;;;13.95;1.85;;;;;;;;;;5013431;28;20029;-80
2023/04/12 00:10:04;;;;;;;8.07;1.52;;;;;;;;;;5013230;28;20447;-81
2023/04/12 00:12:43;;;;;;;11.00;2.28;;;;;;;;;;5008989;28;20049;-81
2023/04/12 00:15:09;;;;;;;10.65;1.42;;;;;;;;;;5018949;28;20088;-80
2023/04/12 00:17:34;;;;;;;9.95;1.75;;;;;;;;;;5013215;28;20421;-81
2023/04/12 00:20:15;;;;;;;18.63;1.73;;;;;;;;;;5013337;28;20021;-80
2023/04/12 00:22:41;;;;;;;5.85;1.13;;;;;;;;;;5012278;28;20046;-80
2023/04/12 00:25:13;;;;;;;4.22;1.25;;;;;;;;;;5013227;28;20037;-80
2023/04/12 00:27:45;;;;;;;8.23;1.50;;;;;;;;;;5013279;28;20041;-80
2023/04/12 00:30:10;;;;;;;13.00;2.05;;;;;;;;;;5027720;28;20091;-80
2023/04/12 00:32:42;;;;;;;15.73;1.40;;;;;;;;;;5013253;28;20034;-80
2023/04/12 00:35:14;;;;;;;12.80;1.55;;;;;;;;;;5012827;28;20034;-80
2023/04/12 00:37:39;;;;;;;4.10;1.25;;;;;;;;;;5012781;28;20486;-81
2023/04/12 00:40:11;;;;;;;14.43;1.50;;;;;;;;;;5014177;28;20036;-80
2023/04/12 00:42:43;;;;;;;7.95;1.10;;;;;;;;;;5053553;28;20042;-81
2023/04/12 00:45:08;;;;;;;11.85;1.13;;;;;;;;;;5012997;28;20088;-80
2023/04/12 00:47:42;;;;;;;17.92;2.05;;;;;;;;;;5017346;28;20021;-81
2023/04/12 00:50:15;;;;;;;9.50;1.63;;;;;;;;;;4999024;28;20128;-79
2023/04/12 00:52:47;;;;;;;10.10;1.33;;;;;;;;;;5051419;28;20252;-80
2023/04/12 00:55:12;;;;;;;11.93;1.83;;;;;;;;;;5008484;28;20406;-80
2023/04/12 00:57:45;;;;;;;16.17;1.77;;;;;;;;;;5013044;28;20030;-81
2023/04/12 01:00:17;;;;;;;10.43;1.48;;;;;;;;;;5043047;28;20433;-80
2023/04/12 01:02:52;;;;;;;4.25;1.40;;;;;;;;;;5011619;28;20105;-81
2023/04/12 01:05:24;;;;;;;10.75;2.17;;;;;;;;;;5027292;28;20048;-80
2023/04/12 01:08:30;;;;;;;8.27;1.63;;;;;;;;;;5012866;28;20092;-80
2023/04/12 01:11:13;;;;;;;17.98;1.67;;;;;;;;;;5027770;28;20041;-80
2023/04/12 01:13:52;;;;;;;14.27;1.90;;;;;;;;;;4999367;28;20041;-81
2023/04/12 01:16:29;;;;;;;8.25;1.75;;;;;;;;;;5044389;28;20128;-80
2023/04/12 01:19:05;;;;;;;11.23;1.75;;;;;;;;;;5016456;28;20037;-80
2023/04/12 01:22:07;;;;;;;9.45;1.40;;;;;;;;;;5024984;28;20104;-80
2023/04/12 01:24:57;;;;;;;15.88;1.50;;;;;;;;;;5014679;28;20054;-80
2023/04/12 01:27:42;;;;;;;16.92;1.60;;;;;;;;;;5046272;28;20120;-80
2023/04/12 01:30:18;;;;;;;9.88;1.45;;;;;;;;;;5022541;28;20462;-81
2023/04/12 01:32:51;;;;;;;16.25;1.40;;;;;;;;;;5016452;28;20064;-81
2023/04/12 01:35:25;;;;;;;8.77;1.38;;;;;;;;;;5047268;28;20078;-81
2023/04/12 01:37:58;;;;;;;4.93;1.05;;;;;;;;;;5030571;28;20117;-81
2023/04/12 01:40:32;;;;;;;10.52;1.70;;;;;;;;;;5036028;28;20042;-81
2023/04/12 01:43:05;;;;;;;7.40;1.33;;;;;;;;;;5013778;28;20124;-80
2023/04/12 01:45:31;;;;;;;7.38;0.93;;;;;;;;;;5047600;28;20120;-80
2023/04/12 01:48:03;;;;;;;7.95;0.95;;;;;;;;;;5017080;28;20141;-80
2023/04/12 01:50:56;;;;;;;5.40;0.70;;;;;;;;;;5018458;28;20048;-81
2023/04/12 01:53:40;;;;;;;2.00;0.70;;;;;;;;;;5016055;28;20046;-81
2023/04/12 01:56:14;;;;;;;2.30;0.60;;;;;;;;;;5015579;28;20076;-81
2023/04/12 01:58:48;;;;;;;6.50;0.88;;;;;;;;;;5010260;28;20048;-81
2023/04/12 02:01:21;;;;;;;3.78;1.08;;;;;;;;;;5044307;28;20108;-81
2023/04/12 02:03:48;;;;;;;2.42;0.50;;;;;;;;;;5012980;28;20058;-81
2023/04/12 02:06:21;;;;;;;8.40;0.85;;;;;;;;;;5046645;28;20478;-81
2023/04/12 02:09:01;;;;;;;1.95;0.60;;;;;;;;;;5014426;28;20042;-81
2023/04/12 02:11:34;;;;;;;2.38;0.65;;;;;;;;;;5011530;28;20108;-80
2023/04/12 02:14:06;;;;;;;2.38;0.60;;;;;;;;;;5014347;28;20389;-80
2023/04/12 02:16:33;;;;;;;0.55;0.40;;;;;;;;;;5015395;28;20042;-81
2023/04/12 02:19:07;;;;;;;2.13;0.88;;;;;;;;;;5014119;28;20096;-80
2023/04/12 02:21:43;;;;;;;3.67;0.50;;;;;;;;;;5026750;28;20175;-81
2023/04/12 02:24:17;;;;;;;0.82;0.50;;;;;;;;;;5046265;28;20520;-81
2023/04/12 02:26:49;;;;;;;6.28;0.73;;;;;;;;;;5014037;28;20044;-80
2023/04/12 02:29:14;;;;;;;4.05;0.90;;;;;;;;;;5017237;28;20044;-80
2023/04/12 02:31:47;;;;;;;1.15;0.70;;;;;;;;;;5023293;28;20037;-81
2023/04/12 02:34:20;;;;;;;3.30;0.80;;;;;;;;;;5025027;28;20042;-80
2023/04/12 02:36:53;;;;;;;3.30;0.67;;;;;;;;;;4997743;28;20417;-80
2023/04/12 02:39:20;;;;;;;6.28;0.90;;;;;;;;;;4999178;28;20660;-80
2023/04/12 02:41:52;;;;;;;1.85;0.60;;;;;;;;;;5016468;28;20057;-81
2023/04/12 02:44:24;;;;;;;3.08;0.65;;;;;;;;;;5022738;28;20034;-80
2023/04/12 02:46:49;;;;;;;10.82;1.15;;;;;;;;;;5014745;28;20049;-80
2023/04/12 02:49:21;;;;;;;1.42;0.52;;;;;;;;;;5014782;28;20034;-80
2023/04/12 02:51:53;;;;;;;7.88;0.60;;;;;;;;;;5014831;28;20034;-81
2023/04/12 02:54:18;;;;;;;3.83;1.08;;;;;;;;;;5015938;28;20057;-81
2023/04/12 02:56:50;;;;;;;5.53;0.60;;;;;;;;;;5014879;28;20022;-80
2023/04/12 02:59:24;;;;;;;1.63;0.65;;;;;;;;;;5014472;28;20433;-80
2023/04/12 03:01:49;;;;;;;1.38;0.50;;;;;;;;;;5014707;28;20053;-81
2023/04/12 03:04:21;;;;;;;4.35;0.70;;;;;;;;;;5024468;28;20049;-80
2023/04/12 03:06:53;;;;;;;4.65;0.70;;;;;;;;;;5018619;28;20109;-81
2023/04/12 03:09:19;;;;;;;11.18;1.45;;;;;;;;;;5014423;28;20042;-80
2023/04/12 03:11:51;;;;;;;2.53;0.70;;;;;;;;;;5014544;28;20026;-80
2023/04/12 03:14:23;;;;;;;7.15;1.02;;;;;;;;;;5022986;28;20046;-80
2023/04/12 03:16:50;;;;;;;5.95;0.77;;;;;;;;;;5014501;28;20044;-80
2023/04/12 03:19:22;;;;;;;5.72;0.75;;;;;;;;;;5045839;28;20105;-81
2023/04/12 03:21:54;;;;;;;6.25;0.80;;;;;;;;;;5014648;28;20134;-81
2023/04/12 03:24:19;;;;;;;5.50;0.47;;;;;;;;;;5019243;28;20402;-80
2023/04/12 03:26:51;;;;;;;5.97;0.70;;;;;;;;;;5014282;28;20034;-80
2023/04/12 03:29:23;;;;;;;6.95;0.82;;;;;;;;;;5014036;28;20076;-80
2023/04/12 03:31:48;;;;;;;16.30;1.80;;;;;;;;;;5014169;28;20058;-81
2023/04/12 03:34:20;;;;;;;4.83;1.23;;;;;;;;;;5015386;28;20069;-80
2023/04/12 03:36:52;;;;;;;11.05;1.08;;;;;;;;;;5017727;28;20063;-81
2023/04/12 03:39:17;;;;;;;4.25;0.93;;;;;;;;;;5015002;28;20048;-80
2023/04/12 03:41:49;;;;;;;15.02;1.63;;;;;;;;;;5022284;28;20034;-81
2023/04/12 03:44:21;;;;;;;5.10;0.52;;;;;;;;;;5011769;28;20034;-81
2023/04/12 03:46:47;;;;;;;4.60;0.77;;;;;;;;;;5017393;28;20558;-81
2023/04/12 03:49:20;;;;;;;2.83;0.80;;;;;;;;;;5005519;28;20394;-84
2023/04/12 03:51:52;;;;;;;7.13;0.63;;;;;;;;;;5019556;28;20038;-83
2023/04/12 03:54:17;;;;;;;3.65;1.10;;;;;;;;;;5016603;28;20053;-84
2023/04/12 03:56:49;;;;;;;17.30;1.33;;;;;;;;;;5013784;28;20038;-83
2023/04/12 03:59:21;;;;;;;4.97;0.55;;;;;;;;;;5014412;28;20033;-83
2023/04/12 04:01:46;;;;;;;2.00;0.95;;;;;;;;;;5016233;28;20091;-83
2023/04/12 04:04:18;;;;;;;2.95;0.65;;;;;;;;;;5015444;28;20058;-81
2023/04/12 04:06:50;;;;;;;10.35;0.88;;;;;;;;;;5013787;28;20046;-83
2023/04/12 04:09:15;;;;;;;7.25;0.63;;;;;;;;;;5012948;28;20041;-83
2023/04/12 04:11:48;;;;;;;3.60;0.98;;;;;;;;;;5013623;28;20041;-81
2023/04/12 04:14:20;;;;;;;6.57;1.00;;;;;;;;;;5020799;28;20105;-82
2023/04/12 04:16:45;;;;;;;14.07;0.95;;;;;;;;;;5013494;28;20034;-83
2023/04/12 04:19:17;;;;;;;8.88;1.05;;;;;;;;;;5016934;28;20116;-82
2023/04/12 04:21:49;;;;;;;5.22;0.70;;;;;;;;;;5020049;28;20474;-83
2023/04/12 04:24:17;;;;;;;7.60;1.02;;;;;;;;;;5015304;28;20065;-82
2023/04/12 04:26:57;;;;;;;7.03;0.93;;;;;;;;;;5011604;28;20061;-83
2023/04/12 04:29:24;;;;;;;4.63;0.45;;;;;;;;;;5013368;28;20034;-83
2023/04/12 04:32:04;;;;;;;6.88;0.70;;;;;;;;;;5013412;28;20036;-83
2023/04/12 04:34:30;;;;;;;3.65;0.60;;;;;;;;;;5013436;28;20116;-83
2023/04/12 04:36:57;;;;;;;1.55;0.70;;;;;;;;;;5013214;28;20036;-83
2023/04/12 04:39:36;;;;;;;7.63;0.77;;;;;;;;;;5013253;28;20034;-84
2023/04/12 04:42:01;;;;;;;6.50;0.70;;;;;;;;;;5015573;28;20428;-83
2023/04/12 04:44:26;;;;;;;11.45;1.50;;;;;;;;;;5012896;28;20040;-83
2023/04/12 04:47:05;;;;;;;5.57;0.65;;;;;;;;;;5015257;28;20036;-83
2023/04/12 04:49:31;;;;;;;6.32;0.98;;;;;;;;;;5016917;28;20038;-82
2023/04/12 04:51:56;;;;;;;6.55;0.77;;;;;;;;;;5023230;28;20030;-83
2023/04/12 04:54:35;;;;;;;5.00;0.80;;;;;;;;;;5017052;28;20424;-83
2023/04/12 04:57:00;;;;;;;7.00;1.30;;;;;;;;;;5016867;28;20040;-82
2023/04/12 04:59:26;;;;;;;9.98;1.42;;;;;;;;;;5018075;28;20027;-83
2023/04/12 05:02:05;;;;;;;7.03;1.73;;;;;;;;;;5015792;28;20084;-82
2023/04/12 05:04:30;;;;;;;9.10;2.47;;;;;;;;;;5023510;28;20045;-81
2023/04/12 05:06:55;;;;;;;13.63;3.38;;;;;;;;;;5016677;28;20363;-82
2023/04/12 05:09:34;;;;;;;17.70;1.80;;;;;;;;;;5024367;28;20032;-82
2023/04/12 05:11:59;;;;;;;9.73;1.20;;;;;;;;;;5016481;28;20064;-82
2023/04/12 05:14:25;;;;;;;5.85;1.23;;;;;;;;;;5017911;28;20041;-82
2023/04/12 05:17:04;;;;;;;6.68;0.90;;;;;;;;;;5020833;28;20414;-82
2023/04/12 05:19:30;;;;;;;4.85;1.35;;;;;;;;;;5019924;28;20033;-83
2023/04/12 05:21:55;;;;;;;19.30;5.47;;;;;;;;;;5019856;28;20045;-83
2023/04/12 05:24:34;;;;;;;10.70;3.10;;;;;;;;;;5033476;28;20081;-83
2023/04/12 05:26:59;;;;;;;20.17;4.03;;;;;;;;;;5017175;28;20491;-83
2023/04/12 05:29:24;;;;;;;11.75;3.50;;;;;;;;;;5018159;28;20042;-82
2023/04/12 05:32:04;;;;;;;11.65;2.25;;;;;;;;;;5018031;28;20493;-82
2023/04/12 05:34:29;;;;;;;10.43;1.77;;;;;;;;;;5017350;28;20371;-82
2023/04/12 05:36:55;;;;;;;31.00;2.53;;;;;;;;;;5015926;28;20065;-81
2023/04/12 05:39:34;;;;;;;18.50;1.70;;;;;;;;;;5034022;28;20564;-82
2023/04/12 05:41:59;;;;;;;4.78;0.82;;;;;;;;;;5015989;28;20057;-81
2023/04/12 05:44:24;;;;;;;9.38;2.05;;;;;;;;;;5020678;28;20482;-82
2023/04/12 05:47:03;;;;;;;4.20;0.93;;;;;;;;;;5015645;28;20099;-82
2023/04/12 05:49:30;;;;;;;5.80;1.20;;;;;;;;;;5021617;28;20375;-83
2023/04/12 05:51:55;;;;;;;3.15;1.00;;;;;;;;;;5030691;28;20418;-83
2023/04/12 05:54:34;;;;;;;10.43;1.23;;;;;;;;;;5016290;28;20076;-82
2023/04/12 05:56:59;;;;;;;10.10;1.85;;;;;;;;;;5013770;28;20057;-82
2023/04/12 05:59:25;;;;;;;7.38;1.13;;;;;;;;;;5015863;28;20473;-83
2023/04/12 06:02:04;;;;;;;2.70;0.68;;;;;;;;;;5015828;28;20026;-83
2023/04/12 06:04:30;;;;;;;2.25;0.65;;;;;;;;;;5017978;28;20057;-83
2023/04/12 06:06:56;;;;;;;8.45;1.00;;;;;;;;;;5015271;28;20401;-82
2023/04/12 06:09:35;;;;;;;4.43;0.77;;;;;;;;;;5015960;28;20034;-83
2023/04/12 06:12:01;;;;;;;8.15;1.17;;;;;;;;;;5015338;28;20058;-83
2023/04/12 06:14:26;;;;;;;7.22;1.25;;;;;;;;;;5016567;28;20473;-83
2023/04/12 06:17:05;;;;;;;8.55;0.73;;;;;;;;;;5030391;28;20061;-83
2023/04/12 06:19:30;;;;;;;1.35;0.63;;;;;;;;;;5015907;28;20540;-83
2023/04/12 06:21:55;;;;;;;3.30;0.70;;;;;;;;;;5016306;28;20034;-82
2023/04/12 06:24:34;;;;;;;6.15;1.45;;;;;;;;;;5023196;28;20038;-83
2023/04/12 06:26:59;;;;;;;9.85;1.08;;;;;;;;;;5017122;28;20041;-83
2023/04/12 06:29:25;;;;;;;4.60;1.17;;;;;;;;;;5017731;28;20359;-82
2023/04/12 06:32:03;;;;;;;0.52;0.30;;;;;;;;;;5018742;28;20541;-82
2023/04/12 06:34:28;;;;;;;4.68;0.60;;;;;;;;;;5017406;28;20088;-83
2023/04/12 06:36:53;;;;;;;4.75;1.10;;;;;;;;;;5015358;28;20494;-82
2023/04/12 06:39:32;;;;;;;2.88;0.50;;;;;;;;;;5018303;28;20048;-82
2023/04/12 06:41:57;;;;;;;5.47;1.00;;;;;;;;;;5015072;28;20462;-82
2023/04/12 06:44:23;;;;;;;10.18;0.70;;;;;;;;;;5020820;28;20044;-82
2023/04/12 06:47:02;;;;;;;7.22;1.05;;;;;;;;;;5019615;28;20030;-82
2023/04/12 06:49:27;;;;;;;5.88;0.95;;;;;;;;;;5016532;28;20049;-82
2023/04/12 06:51:53;;;;;;;5.07;0.93;;;;;;;;;;5017428;28;20033;-83
2023/04/12 06:54:31;;;;;;;5.65;1.08;;;;;;;;;;5021983;28;20088;-82
2023/04/12 06:56:56;;;;;;;1.90;0.90;;;;;;;;;;5014496;28;20042;-81
2023/04/12 06:59:22;;;;;;;2.65;0.82;;;;;;;;;;5015384;28;20474;-82
2023/04/12 07:02:01;;;;;;;3.20;1.02;;;;;;;;;;5016247;28;20164;-84
2023/04/12 07:04:26;;;;;;;5.28;1.15;;;;;;;;;;5018703;28;20046;-83
2023/04/12 07:06:51;;;;;;;4.07;1.05;;;;;;;;;;5014350;28;20044;-82
2023/04/12 07:09:31;;;;;;;4.57;1.10;;;;;;;;;;5031615;28;20118;-82
2023/04/12 07:11:56;;;;;;;3.70;0.98;;;;;;;;;;5013862;28;20072;-82
2023/04/12 07:14:21;;;;;;;12.32;1.33;;;;;;;;;;5014356;28;20073;-83
2023/04/12 07:17:00;;;;;;;3.78;1.00;;;;;;;;;;5015791;28;20048;-82
2023/04/12 07:19:26;;;;;;;3.88;1.00;;;;;;;;;;5025042;28;20037;-81
2023/04/12 07:21:51;;;;;;;5.88;0.90;;;;;;;;;;5016606;28;20045;-79
2023/04/12 07:24:30;;;;;;;6.30;1.00;;;;;;;;;;5014738;28;20034;-80
2023/04/12 07:26:55;;;;;;;4.65;0.80;;;;;;;;;;5028388;28;20052;-81
2023/04/12 07:29:20;;;;;;;7.65;1.17;;;;;;;;;;5014184;28;20033;-81
2023/04/12 07:31:59;;;;;;;7.70;1.15;;;;;;;;;;5023371;28;20039;-82
2023/04/12 07:34:25;;;;;;;8.73;1.13;;;;;;;;;;5013059;28;20513;-82
2023/04/12 07:36:50;;;;;;;8.15;1.13;;;;;;;;;;5013826;28;20034;-82
2023/04/12 07:39:30;;;;;;;7.47;1.13;;;;;;;;;;5014878;28;20437;-81
2023/04/12 07:41:55;;;;;;;7.35;1.27;;;;;;;;;;5030817;28;20041;-80
2023/04/12 07:44:21;;;;;;;5.28;1.15;;;;;;;;;;5013523;28;20458;-80
2023/04/12 07:47:00;;;;;;;5.95;1.13;;;;;;;;;;5021476;28;20044;-80
2023/04/12 07:49:26;;;;;;;4.72;1.10;;;;;;;;;;5013625;28;20558;-80
2023/04/12 07:51:51;;;;;;;7.00;1.45;;;;;;;;;;5018268;28;20124;-80
2023/04/12 07:54:33;;;;;;;4.00;0.82;;;;;;;;;;5019284;28;20044;-80
2023/04/12 07:57:02;;;;;;;3.60;0.90;;;;;;;;;;5015103;28;20084;-79
2023/04/12 07:59:41;;;;;;;3.40;1.27;;;;;;;;;;5014394;28;20488;-80
2023/04/12 08:02:06;;;;;;;4.07;0.95;;;;;;;;;;5014518;28;20037;-79
2023/04/12 08:04:31;;;;;;;4.35;1.00;;;;;;;;;;5046915;28;20547;-79
2023/04/12 08:07:10;;;;;;;6.38;1.00;;;;;;;;;;5012589;28;20032;-80
2023/04/12 08:09:35;;;;;;;6.13;1.23;;;;;;;;;;5022371;28;20049;-81
2023/04/12 08:12:02;;;;;;;6.22;0.98;;;;;;;;;;5019976;28;20042;-80
2023/04/12 08:14:41;;;;;;;5.80;1.10;;;;;;;;;;4998221;28;20038;-81
2023/04/12 08:17:06;;;;;;;1.60;0.90;;;;;;;;;;5010342;28;20478;-81
2023/04/12 08:19:32;;;;;;;3.55;1.38;;;;;;;;;;5019284;28;20030;-80
2023/04/12 08:22:12;;;;;;;3.58;0.73;;;;;;;;;;5012720;28;20038;-80
2023/04/12 08:24:37;;;;;;;4.40;1.10;;;;;;;;;;5009700;28;20715;-80
2023/04/12 08:27:02;;;;;;;4.25;1.02;;;;;;;;;;5011994;28;20034;-80
2023/04/12 08:29:41;;;;;;;3.40;1.08;;;;;;;;;;5016707;28;20052;-81
2023/04/12 08:32:08;;;;;;;7.32;1.45;;;;;;;;;;5022011;28;20042;-81
2023/04/12 08:34:33;;;;;;;3.38;1.33;;;;;;;;;;5011251;28;20541;-81
2023/04/12 08:37:12;;;;;;;5.80;1.10;;;;;;;;;;5009929;28;20030;-79
2023/04/12 08:39:37;;;;;;;3.55;1.02;;;;;;;;;;5011501;28;20049;-79
2023/04/12 08:42:03;;;;;;;3.08;1.05;;;;;;;;;;5010423;28;20101;-80
2023/04/12 08:44:44;;;;;;;4.07;1.38;;;;;;;;;;5009572;28;20077;-81
2023/04/12 08:47:10;;;;;;;4.38;1.00;;;;;;;;;;5009404;28;20038;-80
2023/04/12 08:49:42;;;;;;;5.15;1.20;;;;;;;;;;5009273;28;20088;-81
2023/04/12 08:52:15;;;;;;;6.57;1.45;;;;;;;;;;5010217;28;20045;-82
2023/04/12 08:54:41;;;;;;;7.68;1.40;;;;;;;;;;5008627;28;20041;-81
2023/04/12 08:57:12;;;;;;;7.88;1.33;;;;;;;;;;5016074;28;20041;-81
2023/04/12 08:59:45;;;;;;;8.95;1.27;;;;;;;;;;4998349;28;20073;-81
2023/04/12 09:02:19;;;;;;;3.88;1.00;;;;;;;;;;5034087;28;20117;-80
2023/04/12 09:04:55;;;;;;;9.35;1.33;;;;;;;;;;5006674;28;20081;-77
2023/04/12 09:07:29;;;;;;;5.50;1.48;;;;;;;;;;5009332;28;20486;-79
2023/04/12 09:10:03;;;;;;;5.88;1.00;;;;;;;;;;5010313;28;20030;-80
2023/04/12 09:12:44;;;;;;;6.05;1.13;;;;;;;;;;5041986;28;20037;-81
2023/04/12 09:15:17;;;;;;;5.13;1.20;;;;;;;;;;5009894;28;20040;-79
2023/04/12 09:18:02;;;;;;;3.83;1.13;;;;;;;;;;5029090;28;20375;-80
2023/04/12 09:20:34;;;;;;;4.88;1.30;;;;;;;;;;4997760;28;20382;-81
2023/04/12 09:23:24;;;;;;;7.82;1.55;;;;;;;;;;5008453;28;20045;-80
2023/04/12 09:25:57;;;;;;;7.20;1.98;;;;;;;;;;4993193;28;20034;-81
2023/04/12 09:28:29;;;;;;;6.85;1.50;;;;;;;;;;5006720;28;20037;-80
2023/04/12 09:31:05;;;;;;;7.18;2.75;;;;;;;;;;5010003;28;20140;-80
2023/04/12 09:33:38;;;;;;;7.63;1.20;;;;;;;;;;5024434;28;20041;-76
2023/04/12 09:36:13;;;;;;;5.30;1.38;;;;;;;;;;5012616;28;20042;-79
2023/04/12 09:38:59;;;;;;;10.75;1.80;;;;;;;;;;5010958;28;20478;-79
2023/04/12 09:41:31;;;;;;;8.60;1.40;;;;;;;;;;5011160;28;20041;-79
2023/04/12 09:44:03;;;;;;;7.97;1.10;;;;;;;;;;5016160;28;20042;-79
2023/04/12 09:46:28;;;;;;;6.22;1.33;;;;;;;;;;5011838;28;20091;-80
2023/04/12 09:49:02;;;;;;;13.63;1.85;;;;;;;;;;5014135;28;20068;-80
2023/04/12 09:51:35;;;;;;;12.38;1.90;;;;;;;;;;5006803;28;20038;-82
2023/04/12 09:54:09;;;;;;;9.18;1.75;;;;;;;;;;4999249;28;20045;-81
2023/04/12 09:56:43;;;;;;;10.45;1.70;;;;;;;;;;5053192;28;20148;-81
2023/04/12 09:59:08;;;;;;;;;;;;;;;;;;5028170;28;20045;-82
2023/04/12 10:01:45;;;;;;;9.75;1.67;;;;;;;;;;5016522;28;19924;-81
2023/04/12 10:04:18;;;;;;;5.53;1.17;;;;;;;;;;5024841;28;20561;-81
2023/04/12 10:06:44;;;;;;;11.83;2.10;;;;;;;;;;4998182;28;20030;-80
2023/04/12 10:09:18;;;;;;;10.27;1.52;;;;;;;;;;5003744;28;20075;-78
2023/04/12 10:11:50;;;;;;;10.40;1.48;;;;;;;;;;5010188;28;20060;-81
2023/04/12 10:14:16;;;;;;;10.88;1.40;;;;;;;;;;5025173;28;20525;-81
2023/04/12 10:16:49;;;;;;;9.18;1.92;;;;;;;;;;5011327;28;20033;-81
2023/04/12 10:19:23;;;;;;;3.92;1.08;;;;;;;;;;5009461;28;20042;-81
2023/04/12 10:21:48;;;;;;;10.73;1.63;;;;;;;;;;5031107;28;20918;-80
2023/04/12 10:24:20;;;;;;;5.97;1.25;;;;;;;;;;5016312;28;20069;-81
2023/04/12 10:26:54;;;;;;;8.73;1.00;;;;;;;;;;5011712;28;20040;-80
2023/04/12 10:29:38;;;;;;;5.78;1.15;;;;;;;;;;5003575;28;20046;-79
2023/04/12 10:32:21;;;;;;;;;;;;;;;;;;5006633;28;20042;-78
2023/04/12 10:35:04;;;;;;;11.13;2.20;;;;;;;;;;5008761;28;20389;-80
2023/04/12 10:38:12;;;;;;;9.63;1.88;;;;;;;;;;5036528;28;20056;-80
2023/04/12 10:41:23;;;;;;;7.78;1.30;;;;;;;;;;4961973;28;20087;-79
2023/04/12 10:44:25;;;;;;;4.85;1.02;;;;;;;;;;5022606;28;20034;-81
2023/04/12 10:46:57;;;;;;;5.10;1.13;;;;;;;;;;5040920;28;20040;-78
2023/04/12 10:49:29;;;;;;;14.95;4.20;;;;;;;;;;5010075;28;20052;-79
2023/04/12 10:52:07;;;;;;;5.45;1.00;;;;;;;;;;5012443;28;20077;-82
2023/04/12 10:54:39;;;;;;;5.72;1.00;;;;;;;;;;5006671;28;20132;-79
2023/04/12 10:57:05;;;;;;;3.75;0.80;;;;;;;;;;5010313;28;20048;-79
2023/04/12 11:00:02;;;;;;;8.48;1.20;;;;;;;;;;5024655;28;20034;-82
2023/04/12 11:02:27;;;;;;;6.20;1.00;;;;;;;;;;5006570;28;20375;-79
2023/04/12 11:05:22;;;;;;;5.85;1.05;;;;;;;;;;5008175;28;20141;-82
2023/04/12 11:07:51;;;;;;;9.77;1.55;;;;;;;;;;4995850;28;20402;-82
2023/04/12 11:10:31;;;;;;;2.05;0.98;;;;;;;;;;4989797;28;20046;-79
2023/04/12 11:13:06;;;;;;;8.23;1.60;;;;;;;;;;5009858;28;20052;-82
2023/04/12 11:15:45;;;;;;;7.15;1.38;;;;;;;;;;5006404;28;20045;-82
2023/04/12 11:18:10;;;;;;;7.25;1.52;;;;;;;;;;5006244;28;20053;-83
2023/04/12 11:20:38;;;;;;;7.72;1.75;;;;;;;;;;5011481;28;20038;-82
2023/04/12 11:23:17;;;;;;;1.90;0.93;;;;;;;;;;5007811;28;20048;-79
2023/04/12 11:25:43;;;;;;;3.45;1.17;;;;;;;;;;5010001;28;20363;-82
2023/04/12 11:28:08;;;;;;;6.15;1.05;;;;;;;;;;5011987;28;20108;-81
2023/04/12 11:31:00;;;;;;;7.32;1.83;;;;;;;;;;5018501;28;20045;-82
2023/04/12 11:33:35;;;;;;;5.15;1.08;;;;;;;;;;5012936;28;20045;-81
2023/04/12 11:36:18;;;;;;;6.35;1.30;;;;;;;;;;5022332;28;20088;-80
2023/04/12 11:38:44;;;;;;;8.88;1.40;;;;;;;;;;5014304;28;20095;-81
2023/04/12 11:41:17;;;;;;;9.65;1.33;;;;;;;;;;5007100;28;20045;-81
2023/04/12 11:43:49;;;;;;;6.32;1.30;;;;;;;;;;5010839;28;20041;-81
2023/04/12 11:46:15;;;;;;;7.03;1.10;;;;;;;;;;5009108;28;20128;-80
2023/04/12 11:48:47;;;;;;;3.05;1.05;;;;;;;;;;5014665;28;20105;-81
2023/04/12 11:51:29;;;;;;;7.28;1.38;;;;;;;;;;5008807;28;20181;-81
2023/04/12 11:54:01;;;;;;;5.22;1.45;;;;;;;;;;5010159;28;20038;-81
2023/04/12 11:56:36;;;;;;;3.30;1.10;;;;;;;;;;4990037;28;20037;-79
2023/04/12 11:59:08;;;;;;;2.58;0.73;;;;;;;;;;5009097;28;20433;-80
2023/04/12 12:01:34;;;;;;;4.00;1.00;;;;;;;;;;5008622;28;20091;-78
2023/04/12 12:04:06;;;;;;;2.63;0.65;;;;;;;;;;5009814;28;20050;-80
2023/04/12 12:06:38;;;;;;;6.28;0.85;;;;;;;;;;5006267;28;20041;-80
2023/04/12 12:09:04;;;;;;;9.20;1.20;;;;;;;;;;5015671;28;20103;-80
2023/04/12 12:11:36;;;;;;;4.97;1.30;;;;;;;;;;5007224;28;20473;-81
2023/04/12 12:14:08;;;;;;;4.10;0.70;;;;;;;;;;5013164;28;20053;-80
2023/04/12 12:16:34;;;;;;;6.50;1.60;;;;;;;;;;5002873;28;20033;-81
2023/04/12 12:19:09;;;;;;;3.95;0.80;;;;;;;;;;5008978;28;20120;-79
2023/04/12 12:21:41;;;;;;;4.50;0.90;;;;;;;;;;5038128;28;20448;-79
2023/04/12 12:24:17;;;;;;;5.97;1.30;;;;;;;;;;5015839;28;20046;-78
2023/04/12 12:26:50;;;;;;;18.85;1.13;;;;;;;;;;5013310;28;20037;-80
2023/04/12 12:29:17;;;;;;;4.07;1.20;;;;;;;;;;5043074;28;20164;-81
2023/04/12 12:31:52;;;;;;;8.70;1.60;;;;;;;;;;5013832;28;20120;-80
2023/04/12 12:34:24;;;;;;;18.52;4.85;;;;;;;;;;5014807;28;20041;-81
2023/04/12 12:37:00;;;;;;;2.30;0.70;;;;;;;;;;5009658;28;20478;-80
2023/04/12 12:39:32;;;;;;;4.75;0.93;;;;;;;;;;5003389;28;20053;-78
2023/04/12 12:41:59;;;;;;;4.60;1.10;;;;;;;;;;5006559;28;20383;-80
2023/04/12 12:44:31;;;;;;;7.35;1.95;;;;;;;;;;5012860;28;20044;-80
2023/04/12 12:47:03;;;;;;;6.38;1.25;;;;;;;;;;5009958;28;20053;-80
2023/04/12 12:49:28;;;;;;;4.47;0.95;;;;;;;;;;5025826;28;20406;-80
2023/04/12 12:52:01;;;;;;;7.43;1.42;;;;;;;;;;5015668;28;20025;-80
2023/04/12 12:54:34;;;;;;;9.70;1.70;;;;;;;;;;5014961;28;20049;-80
2023/04/12 12:57:00;;;;;;;5.32;1.48;;;;;;;;;;5011928;28;20045;-80
2023/04/12 12:59:32;;;;;;;8.40;1.25;;;;;;;;;;5007560;28;20033;-79
2023/04/12 13:02:05;;;;;;;9.90;1.55;;;;;;;;;;5014051;28;20038;-80
2023/04/12 13:04:31;;;;;;;7.50;1.52;;;;;;;;;;5013688;28;20960;-79
2023/04/12 13:07:03;;;;;;;8.15;1.63;;;;;;;;;;5015110;28;20046;-80
2023/04/12 13:09:35;;;;;;;8.65;1.65;;;;;;;;;;5019841;28;20038;-80
2023/04/12 13:12:01;;;;;;;6.70;1.10;;;;;;;;;;5012496;28;20046;-80
2023/04/12 13:14:33;;;;;;;9.30;1.50;;;;;;;;;;5006127;28;20048;-81
2023/04/12 13:17:05;;;;;;;7.10;1.40;;;;;;;;;;5016487;28;20433;-80
2023/04/12 13:19:30;;;;;;;8.50;1.20;;;;;;;;;;5015166;28;20052;-80
2023/04/12 13:22:02;;;;;;;4.43;1.10;;;;;;;;;;5011707;28;20038;-80
2023/04/12 13:24:34;;;;;;;5.95;1.45;;;;;;;;;;5006096;28;20042;-80
2023/04/12 13:27:00;;;;;;;6.82;1.55;;;;;;;;;;5014845;28;20042;-80
2023/04/12 13:29:32;;;;;;;9.13;1.60;;;;;;;;;;5013309;28;20042;-80
2023/04/12 13:32:04;;;;;;;7.78;1.17;;;;;;;;;;5022928;28;20423;-79
2023/04/12 13:34:30;;;;;;;9.30;1.95;;;;;;;;;;5006889;28;20390;-80
2023/04/12 13:37:02;;;;;;;2.00;0.95;;;;;;;;;;5023371;28;20038;-79
2023/04/12 13:39:35;;;;;;;11.57;1.55;;;;;;;;;;5012581;28;20459;-80
2023/04/12 13:42:01;;;;;;;7.50;1.20;;;;;;;;;;5012107;28;20041;-80
2023/04/12 13:44:33;;;;;;;6.50;2.22;;;;;;;;;;5014086;28;20033;-81
2023/04/12 13:47:05;;;;;;;6.95;1.38;;;;;;;;;;5014835;28;20044;-79
2023/04/12 13:49:30;;;;;;;11.25;2.13;;;;;;;;;;5007988;28;20406;-80
2023/04/12 13:52:02;;;;;;;7.25;2.13;;;;;;;;;;5015308;28;20029;-80
2023/04/12 13:54:34;;;;;;;9.68;1.67;;;;;;;;;;5010413;28;20490;-81
2023/04/12 13:57:01;;;;;;;13.38;2.10;;;;;;;;;;5011168;28;20052;-81
2023/04/12 13:59:33;;;;;;;12.00;2.25;;;;;;;;;;5014434;28;20060;-81
2023/04/12 14:02:06;;;;;;;9.15;1.65;;;;;;;;;;5014198;28;20041;-81
2023/04/12 14:04:31;;;;;;;7.85;1.58;;;;;;;;;;5012834;28;20062;-81
2023/04/12 14:07:04;;;;;;;9.77;1.52;;;;;;;;;;5016452;28;20100;-80
2023/04/12 14:09:36;;;;;;;5.30;1.45;;;;;;;;;;5012942;28;20046;-79
2023/04/12 14:12:01;;;;;;;8.00;1.45;;;;;;;;;;5008939;28;20042;-81
2023/04/12 14:14:33;;;;;;;3.72;0.80;;;;;;;;;;5009362;28;20034;-81
2023/04/12 14:17:05;;;;;;;6.03;1.00;;;;;;;;;;5011499;28;20475;-80
2023/04/12 14:19:31;;;;;;;2.92;0.75;;;;;;;;;;5000833;28;20057;-81
2023/04/12 14:22:03;;;;;;;3.85;1.02;;;;;;;;;;5003868;28;20033;-81
2023/04/12 14:24:35;;;;;;;5.93;1.30;;;;;;;;;;5008729;28;20042;-80
2023/04/12 14:27:01;;;;;;;7.80;1.38;;;;;;;;;;5009268;28;20497;-80
2023/04/12 14:29:33;;;;;;;6.43;1.10;;;;;;;;;;5010477;28;20117;-80
2023/04/12 14:32:05;;;;;;;10.02;1.00;;;;;;;;;;5002716;28;20037;-80
2023/04/12 14:34:30;;;;;;;2.28;0.57;;;;;;;;;;5011249;28;20389;-81
2023/04/12 14:37:02;;;;;;;7.88;1.27;;;;;;;;;;5011886;28;20037;-80
2023/04/12 14:39:34;;;;;;;4.90;1.60;;;;;;;;;;5011134;28;20042;-80
2023/04/12 14:42:00;;;;;;;7.70;1.20;;;;;;;;;;5026754;28;20124;-79
2023/04/12 14:44:32;;;;;;;2.28;1.35;;;;;;;;;;5010398;28;20120;-81
2023/04/12 14:47:04;;;;;;;3.40;0.82;;;;;;;;;;5011012;28;20113;-80
2023/04/12 14:49:30;;;;;;;3.40;0.80;;;;;;;;;;5011188;28;20068;-80
2023/04/12 14:52:03;;;;;;;3.13;0.80;;;;;;;;;;5011031;28;20363;-79
2023/04/12 14:54:35;;;;;;;9.57;1.63;;;;;;;;;;5001686;28;20948;-80
2023/04/12 14:57:00;;;;;;;3.22;0.80;;;;;;;;;;5010195;28;21188;-80
2023/04/12 14:59:33;;;;;;;7.72;1.17;;;;;;;;;;5005768;28;20038;-79
2023/04/12 15:02:05;;;;;;;3.20;1.15;;;;;;;;;;4985514;28;20057;-78
2023/04/12 15:04:31;;;;;;;3.17;1.00;;;;;;;;;;5013428;28;20046;-80
2023/04/12 15:07:03;;;;;;;6.28;1.30;;;;;;;;;;5009143;28;20026;-80
2023/04/12 15:09:35;;;;;;;9.02;1.10;;;;;;;;;;5002233;28;20048;-80